sensor_id;sensor_type;location;lat;lon;timestamp;pressure;altitude;pressure_sealevel;temperature;humidity
20009;BME280;10165;42.662;23.260;2022-10-22T00:02:21;94970.75;;;10.65;61.57
20009;BME280;10165;42.662;23.260;2022-10-22T00:04:48;94970.53;;;10.70;61.90
20009;BME280;10165;42.662;23.260;2022-10-22T00:07:16;94969.78;;;10.90;61.68
20009;BME280;10165;42.662;23.260;2022-10-22T00:09:44;94972.53;;;10.52;63.19
20009;BME280;10165;42.662;23.260;2022-10-22T00:12:12;94973.03;;;10.75;61.94
20009;BME280;10165;42.662;23.260;2022-10-22T00:14:40;94968.44;;;11.05;61.25
20009;BME280;10165;42.662;23.260;2022-10-22T00:17:07;94970.84;;;11.19;60.29
20009;BME280;10165;42.662;23.260;2022-10-22T00:19:38;94963.59;;;11.40;59.62
20009;BME280;10165;42.662;23.260;2022-10-22T00:22:05;94972.97;;;11.46;59.24
20009;BME280;10165;42.662;23.260;2022-10-22T00:24:34;94971.72;;;11.64;58.80
20009;BME280;10165;42.662;23.260;2022-10-22T00:27:01;94968.06;;;11.69;58.68
20009;BME280;10165;42.662;23.260;2022-10-22T00:29:28;94959.47;;;11.42;59.40
20009;BME280;10165;42.662;23.260;2022-10-22T00:31:55;94956.06;;;11.54;59.10
20009;BME280;10165;42.662;23.260;2022-10-22T00:34:27;94951.38;;;11.72;58.85
20009;BME280;10165;42.662;23.260;2022-10-22T00:36:54;94951.84;;;11.65;58.80
20009;BME280;10165;42.662;23.260;2022-10-22T00:39:22;94953.09;;;11.35;59.16
20009;BME280;10165;42.662;23.260;2022-10-22T00:41:51;94951.53;;;11.34;59.08
20009;BME280;10165;42.662;23.260;2022-10-22T00:47:23;94964.34;;;11.08;59.20
20009;BME280;10165;42.662;23.260;2022-10-22T00:49:51;94966.84;;;10.83;60.31
20009;BME280;10165;42.662;23.260;2022-10-22T00:52:20;94962.28;;;11.04;60.16
20009;BME280;10165;42.662;23.260;2022-10-22T00:54:47;94959.22;;;11.35;59.41
20009;BME280;10165;42.662;23.260;2022-10-22T00:57:15;94960.91;;;11.40;59.40
20009;BME280;10165;42.662;23.260;2022-10-22T00:59:43;94948.94;;;11.58;59.03
20009;BME280;10165;42.662;23.260;2022-10-22T01:02:10;94943.19;;;11.68;58.93
20009;BME280;10165;42.662;23.260;2022-10-22T01:04:36;94934.03;;;11.57;59.17
20009;BME280;10165;42.662;23.260;2022-10-22T01:07:03;94933.88;;;11.74;58.45
20009;BME280;10165;42.662;23.260;2022-10-22T01:20:50;94915.47;;;10.78;60.38
20009;BME280;10165;42.662;23.260;2022-10-22T01:31:14;94903.53;;;11.17;59.33
20009;BME280;10165;42.662;23.260;2022-10-22T01:33:44;94901.00;;;11.20;59.43
20009;BME280;10165;42.662;23.260;2022-10-22T01:36:13;94902.38;;;11.26;59.21
20009;BME280;10165;42.662;23.260;2022-10-22T01:38:41;94895.38;;;11.46;58.38
20009;BME280;10165;42.662;23.260;2022-10-22T01:41:10;94894.75;;;11.49;58.58
20009;BME280;10165;42.662;23.260;2022-10-22T01:43:36;94894.09;;;11.52;58.55
20009;BME280;10165;42.662;23.260;2022-10-22T01:46:05;94889.16;;;11.42;58.56
20009;BME280;10165;42.662;23.260;2022-10-22T01:48:50;94890.31;;;11.53;58.24
20009;BME280;10165;42.662;23.260;2022-10-22T02:00:06;94891.25;;;10.33;62.33
20009;BME280;10165;42.662;23.260;2022-10-22T02:02:46;94892.97;;;10.37;61.42
20009;BME280;10165;42.662;23.260;2022-10-22T02:05:39;94895.44;;;10.04;62.89
20009;BME280;10165;42.662;23.260;2022-10-22T02:08:11;94904.41;;;10.67;61.76
20009;BME280;10165;42.662;23.260;2022-10-22T02:10:43;94889.28;;;10.92;60.46
20009;BME280;10165;42.662;23.260;2022-10-22T02:13:24;94896.59;;;11.03;60.17
20009;BME280;10165;42.662;23.260;2022-10-22T02:15:53;94890.38;;;11.12;60.04
20009;BME280;10165;42.662;23.260;2022-10-22T02:18:24;94878.31;;;11.06;60.32
20009;BME280;10165;42.662;23.260;2022-10-22T02:20:53;94875.22;;;11.16;60.52
20009;BME280;10165;42.662;23.260;2022-10-22T02:23:20;94872.53;;;10.41;61.65
20009;BME280;10165;42.662;23.260;2022-10-22T02:25:52;94868.66;;;10.30;62.77
20009;BME280;10165;42.662;23.260;2022-10-22T02:28:37;94880.03;;;10.10;62.90
20009;BME280;10165;42.662;23.260;2022-10-22T02:31:23;94893.81;;;10.21;62.03
20009;BME280;10165;42.662;23.260;2022-10-22T02:33:53;94890.81;;;10.31;62.60
20009;BME280;10165;42.662;23.260;2022-10-22T02:36:22;94900.94;;;10.46;61.58
20009;BME280;10165;42.662;23.260;2022-10-22T02:38:50;94910.91;;;10.28;62.47
20009;BME280;10165;42.662;23.260;2022-10-22T02:41:18;94908.16;;;10.66;61.69
20009;BME280;10165;42.662;23.260;2022-10-22T02:43:51;94910.66;;;10.71;61.02
20009;BME280;10165;42.662;23.260;2022-10-22T02:46:19;94909.47;;;10.60;61.20
20009;BME280;10165;42.662;23.260;2022-10-22T02:48:46;94913.09;;;10.35;61.80
20009;BME280;10165;42.662;23.260;2022-10-22T02:51:13;94908.72;;;10.30;62.53
20009;BME280;10165;42.662;23.260;2022-10-22T02:53:40;94896.69;;;10.16;62.40
20009;BME280;10165;42.662;23.260;2022-10-22T02:56:06;94898.97;;;10.55;61.71
20009;BME280;10165;42.662;23.260;2022-10-22T02:58:33;94903.66;;;10.58;61.11
20009;BME280;10165;42.662;23.260;2022-10-22T03:01:00;94891.22;;;10.62;61.13
20009;BME280;10165;42.662;23.260;2022-10-22T03:03:27;94896.78;;;10.98;60.34
20009;BME280;10165;42.662;23.260;2022-10-22T03:05:54;94891.63;;;10.93;60.43
20009;BME280;10165;42.662;23.260;2022-10-22T03:08:21;94902.38;;;10.85;60.72
20009;BME280;10165;42.662;23.260;2022-10-22T03:10:47;94909.78;;;11.21;59.76
20009;BME280;10165;42.662;23.260;2022-10-22T03:13:14;94902.75;;;11.16;59.63
20009;BME280;10165;42.662;23.260;2022-10-22T03:15:40;94899.03;;;11.09;60.13
20009;BME280;10165;42.662;23.260;2022-10-22T03:18:07;94897.66;;;11.23;59.34
20009;BME280;10165;42.662;23.260;2022-10-22T03:20:34;94898.44;;;11.24;59.39
20009;BME280;10165;42.662;23.260;2022-10-22T03:23:01;94895.56;;;11.29;59.32
20009;BME280;10165;42.662;23.260;2022-10-22T03:25:28;94889.25;;;11.33;58.97
20009;BME280;10165;42.662;23.260;2022-10-22T03:28:02;94890.16;;;11.37;59.04
20009;BME280;10165;42.662;23.260;2022-10-22T03:30:30;94888.25;;;11.38;58.83
20009;BME280;10165;42.662;23.260;2022-10-22T03:32:57;94892.47;;;11.06;59.88
20009;BME280;10165;42.662;23.260;2022-10-22T03:35:24;94895.41;;;11.13;59.29
20009;BME280;10165;42.662;23.260;2022-10-22T03:37:51;94886.94;;;10.90;59.98
20009;BME280;10165;42.662;23.260;2022-10-22T03:40:19;94873.63;;;11.02;59.73
20009;BME280;10165;42.662;23.260;2022-10-22T03:42:46;94872.59;;;10.74;60.16
20009;BME280;10165;42.662;23.260;2022-10-22T03:45:12;94878.50;;;11.00;59.61
20009;BME280;10165;42.662;23.260;2022-10-22T03:47:39;94872.00;;;11.10;59.42
20009;BME280;10165;42.662;23.260;2022-10-22T03:50:06;94884.25;;;11.11;59.23
20009;BME280;10165;42.662;23.260;2022-10-22T03:52:36;94898.41;;;10.70;59.76
20009;BME280;10165;42.662;23.260;2022-10-22T03:55:04;94900.75;;;10.13;62.49
20009;BME280;10165;42.662;23.260;2022-10-22T03:57:31;94889.91;;;10.47;61.91
20009;BME280;10165;42.662;23.260;2022-10-22T03:59:58;94896.63;;;10.53;62.09
20009;BME280;10165;42.662;23.260;2022-10-22T04:02:25;94897.25;;;10.50;61.88
20009;BME280;10165;42.662;23.260;2022-10-22T04:04:51;94889.59;;;10.70;61.64
20009;BME280;10165;42.662;23.260;2022-10-22T04:07:18;94880.09;;;11.01;61.06
20009;BME280;10165;42.662;23.260;2022-10-22T04:09:44;94877.34;;;11.10;60.41
20009;BME280;10165;42.662;23.260;2022-10-22T04:12:11;94877.84;;;11.24;60.18
20009;BME280;10165;42.662;23.260;2022-10-22T04:14:38;94871.94;;;11.31;59.80
20009;BME280;10165;42.662;23.260;2022-10-22T04:17:04;94873.34;;;11.16;60.35
20009;BME280;10165;42.662;23.260;2022-10-22T04:19:31;94876.03;;;10.33;62.02
20009;BME280;10165;42.662;23.260;2022-10-22T04:21:58;94869.53;;;10.64;62.06
20009;BME280;10165;42.662;23.260;2022-10-22T04:24:25;94866.38;;;10.41;62.72
20009;BME280;10165;42.662;23.260;2022-10-22T04:26:54;94872.09;;;9.93;64.42
20009;BME280;10165;42.662;23.260;2022-10-22T04:29:21;94869.09;;;10.03;64.70
20009;BME280;10165;42.662;23.260;2022-10-22T04:31:48;94872.56;;;10.33;64.22
20009;BME280;10165;42.662;23.260;2022-10-22T04:34:15;94868.56;;;10.18;64.20
20009;BME280;10165;42.662;23.260;2022-10-22T04:36:41;94879.00;;;10.32;64.00
20009;BME280;10165;42.662;23.260;2022-10-22T04:39:08;94876.88;;;10.46;64.22
20009;BME280;10165;42.662;23.260;2022-10-22T04:41:37;94878.06;;;10.78;63.06
20009;BME280;10165;42.662;23.260;2022-10-22T04:44:05;94869.56;;;10.96;62.48
20009;BME280;10165;42.662;23.260;2022-10-22T04:46:36;94876.13;;;11.08;62.19
20009;BME280;10165;42.662;23.260;2022-10-22T04:49:06;94871.25;;;11.22;61.67
20009;BME280;10165;42.662;23.260;2022-10-22T04:51:39;94875.03;;;10.88;62.38
20009;BME280;10165;42.662;23.260;2022-10-22T04:54:09;94879.56;;;10.87;62.58
20009;BME280;10165;42.662;23.260;2022-10-22T04:56:40;94887.72;;;10.91;62.88
20009;BME280;10165;42.662;23.260;2022-10-22T04:59:13;94885.28;;;10.77;63.30
20009;BME280;10165;42.662;23.260;2022-10-22T05:01:43;94891.28;;;11.16;62.23
20009;BME280;10165;42.662;23.260;2022-10-22T05:04:16;94892.34;;;11.02;62.49
20009;BME280;10165;42.662;23.260;2022-10-22T05:06:43;94887.19;;;11.18;62.19
20009;BME280;10165;42.662;23.260;2022-10-22T05:09:12;94895.81;;;11.03;62.37
20009;BME280;10165;42.662;23.260;2022-10-22T05:11:42;94921.41;;;10.83;63.12
20009;BME280;10165;42.662;23.260;2022-10-22T05:14:11;94919.16;;;10.44;64.32
20009;BME280;10165;42.662;23.260;2022-10-22T05:16:39;94906.75;;;10.69;63.70
20009;BME280;10165;42.662;23.260;2022-10-22T05:19:06;94917.91;;;10.91;62.83
20009;BME280;10165;42.662;23.260;2022-10-22T05:21:33;94918.81;;;10.95;62.69
20009;BME280;10165;42.662;23.260;2022-10-22T05:24:00;94903.34;;;11.01;62.38
20009;BME280;10165;42.662;23.260;2022-10-22T05:26:35;94904.13;;;11.01;62.63
20009;BME280;10165;42.662;23.260;2022-10-22T05:29:02;94910.94;;;10.99;62.28
20009;BME280;10165;42.662;23.260;2022-10-22T05:31:29;94909.97;;;11.03;62.34
20009;BME280;10165;42.662;23.260;2022-10-22T05:33:55;94915.09;;;11.09;62.32
20009;BME280;10165;42.662;23.260;2022-10-22T05:36:22;94918.97;;;11.32;61.43
20009;BME280;10165;42.662;23.260;2022-10-22T05:38:49;94912.34;;;11.17;61.73
20009;BME280;10165;42.662;23.260;2022-10-22T05:41:18;94913.59;;;10.99;62.30
20009;BME280;10165;42.662;23.260;2022-10-22T05:43:45;94914.72;;;11.31;61.44
20009;BME280;10165;42.662;23.260;2022-10-22T05:46:17;94914.78;;;11.43;60.84
20009;BME280;10165;42.662;23.260;2022-10-22T05:48:53;94918.91;;;11.20;61.39
20009;BME280;10165;42.662;23.260;2022-10-22T05:51:20;94912.78;;;11.19;62.02
20009;BME280;10165;42.662;23.260;2022-10-22T05:53:52;94912.66;;;11.16;61.98
20009;BME280;10165;42.662;23.260;2022-10-22T05:56:20;94912.97;;;11.35;61.54
20009;BME280;10165;42.662;23.260;2022-10-22T05:58:47;94914.47;;;11.44;61.25
20009;BME280;10165;42.662;23.260;2022-10-22T06:01:28;94915.31;;;11.36;61.27
20009;BME280;10165;42.662;23.260;2022-10-22T06:03:57;94918.72;;;11.25;62.05
20009;BME280;10165;42.662;23.260;2022-10-22T06:09:10;94925.59;;;11.34;62.51
20009;BME280;10165;42.662;23.260;2022-10-22T06:11:38;94923.72;;;11.47;61.97
20009;BME280;10165;42.662;23.260;2022-10-22T06:14:05;94920.06;;;11.51;61.82
20009;BME280;10165;42.662;23.260;2022-10-22T06:16:32;94926.06;;;11.48;61.94
20009;BME280;10165;42.662;23.260;2022-10-22T06:18:59;94921.00;;;11.35;62.67
20009;BME280;10165;42.662;23.260;2022-10-22T06:21:28;94918.94;;;11.52;62.14
20009;BME280;10165;42.662;23.260;2022-10-22T06:23:57;94927.84;;;11.77;61.74
20009;BME280;10165;42.662;23.260;2022-10-22T06:26:25;94922.41;;;11.53;62.20
20009;BME280;10165;42.662;23.260;2022-10-22T06:28:51;94915.91;;;11.42;62.50
20009;BME280;10165;42.662;23.260;2022-10-22T06:31:18;94921.16;;;11.50;61.77
20009;BME280;10165;42.662;23.260;2022-10-22T06:33:45;94921.44;;;11.70;61.31
20009;BME280;10165;42.662;23.260;2022-10-22T06:36:17;94934.16;;;11.61;61.68
20009;BME280;10165;42.662;23.260;2022-10-22T06:38:44;94930.63;;;11.48;62.40
20009;BME280;10165;42.662;23.260;2022-10-22T06:41:13;94927.47;;;11.67;61.64
20009;BME280;10165;42.662;23.260;2022-10-22T06:43:41;94931.00;;;11.91;61.36
20009;BME280;10165;42.662;23.260;2022-10-22T06:46:10;94932.16;;;12.15;60.81
20009;BME280;10165;42.662;23.260;2022-10-22T06:48:46;94923.22;;;12.35;60.11
20009;BME280;10165;42.662;23.260;2022-10-22T06:51:13;94929.44;;;11.90;61.30
20009;BME280;10165;42.662;23.260;2022-10-22T06:53:40;94930.78;;;11.96;61.14
20009;BME280;10165;42.662;23.260;2022-10-22T06:56:09;94925.78;;;11.95;61.51
20009;BME280;10165;42.662;23.260;2022-10-22T06:58:36;94936.19;;;12.45;60.77
20009;BME280;10165;42.662;23.260;2022-10-22T07:01:07;94934.63;;;12.56;59.67
20009;BME280;10165;42.662;23.260;2022-10-22T07:03:35;94947.34;;;12.71;59.48
20009;BME280;10165;42.662;23.260;2022-10-22T07:06:04;94934.16;;;12.42;59.38
20009;BME280;10165;42.662;23.260;2022-10-22T07:08:32;94940.00;;;12.68;59.20
20009;BME280;10165;42.662;23.260;2022-10-22T07:11:11;94934.72;;;12.72;58.58
20009;BME280;10165;42.662;23.260;2022-10-22T07:13:38;94921.25;;;12.96;58.12
20009;BME280;10165;42.662;23.260;2022-10-22T07:16:06;94928.13;;;12.81;58.24
20009;BME280;10165;42.662;23.260;2022-10-22T07:18:34;94917.41;;;12.57;59.14
20009;BME280;10165;42.662;23.260;2022-10-22T07:21:02;94921.03;;;12.49;58.82
20009;BME280;10165;42.662;23.260;2022-10-22T07:23:31;94925.00;;;12.79;58.47
20009;BME280;10165;42.662;23.260;2022-10-22T07:25:58;94920.94;;;12.98;57.95
20009;BME280;10165;42.662;23.260;2022-10-22T07:28:29;94920.28;;;12.76;58.20
20009;BME280;10165;42.662;23.260;2022-10-22T07:30:56;94923.66;;;12.73;58.68
20009;BME280;10165;42.662;23.260;2022-10-22T07:33:22;94928.91;;;12.58;59.25
20009;BME280;10165;42.662;23.260;2022-10-22T07:35:49;94920.34;;;13.16;57.82
20009;BME280;10165;42.662;23.260;2022-10-22T07:38:17;94916.50;;;12.77;58.20
20009;BME280;10165;42.662;23.260;2022-10-22T07:40:44;94919.78;;;13.23;57.05
20009;BME280;10165;42.662;23.260;2022-10-22T07:43:11;94914.00;;;12.97;57.51
20009;BME280;10165;42.662;23.260;2022-10-22T07:45:37;94921.03;;;12.49;58.84
20009;BME280;10165;42.662;23.260;2022-10-22T07:48:04;94911.28;;;13.21;57.05
20009;BME280;10165;42.662;23.260;2022-10-22T07:50:31;94906.59;;;12.17;58.98
20009;BME280;10165;42.662;23.260;2022-10-22T07:52:58;94898.81;;;13.13;57.19
20009;BME280;10165;42.662;23.260;2022-10-22T07:55:24;94891.91;;;13.55;56.21
20009;BME280;10165;42.662;23.260;2022-10-22T07:57:51;94891.72;;;13.48;56.40
20009;BME280;10165;42.662;23.260;2022-10-22T08:00:18;94890.53;;;13.61;56.12
20009;BME280;10165;42.662;23.260;2022-10-22T08:02:50;94895.00;;;13.41;56.60
20009;BME280;10165;42.662;23.260;2022-10-22T08:05:18;94898.56;;;13.06;57.37
20009;BME280;10165;42.662;23.260;2022-10-22T08:07:44;94901.09;;;13.54;56.17
20009;BME280;10165;42.662;23.260;2022-10-22T08:10:12;94896.00;;;13.65;56.04
20009;BME280;10165;42.662;23.260;2022-10-22T08:12:39;94900.34;;;13.85;55.35
20009;BME280;10165;42.662;23.260;2022-10-22T08:15:07;94891.97;;;13.86;55.00
20009;BME280;10165;42.662;23.260;2022-10-22T08:17:33;94892.66;;;13.99;54.76
20009;BME280;10165;42.662;23.260;2022-10-22T08:20:00;94891.69;;;14.07;54.41
20009;BME280;10165;42.662;23.260;2022-10-22T08:22:28;94889.81;;;14.08;54.64
20009;BME280;10165;42.662;23.260;2022-10-22T08:24:55;94877.25;;;14.12;54.48
20009;BME280;10165;42.662;23.260;2022-10-22T08:27:21;94878.38;;;13.95;54.63
20009;BME280;10165;42.662;23.260;2022-10-22T08:29:48;94872.41;;;14.17;54.08
20009;BME280;10165;42.662;23.260;2022-10-22T08:32:15;94872.13;;;14.07;54.72
20009;BME280;10165;42.662;23.260;2022-10-22T08:34:42;94874.91;;;14.10;54.22
20009;BME280;10165;42.662;23.260;2022-10-22T08:37:08;94872.56;;;14.56;53.00
20009;BME280;10165;42.662;23.260;2022-10-22T08:39:39;94872.97;;;14.58;53.14
20009;BME280;10165;42.662;23.260;2022-10-22T08:49:58;94878.09;;;14.47;53.25
20009;BME280;10165;42.662;23.260;2022-10-22T08:52:25;94880.19;;;14.07;53.68
20009;BME280;10165;42.662;23.260;2022-10-22T08:54:54;94880.09;;;14.34;53.23
20009;BME280;10165;42.662;23.260;2022-10-22T09:00:22;94889.88;;;14.58;53.05
20009;BME280;10165;42.662;23.260;2022-10-22T09:03:04;94878.03;;;14.44;53.58
20009;BME280;10165;42.662;23.260;2022-10-22T09:08:22;94867.28;;;14.78;52.74
20009;BME280;10165;42.662;23.260;2022-10-22T09:11:23;94864.19;;;14.96;52.66
20009;BME280;10165;42.662;23.260;2022-10-22T09:13:47;94851.50;;;15.35;51.33
20009;BME280;10165;42.662;23.260;2022-10-22T09:21:37;94858.25;;;15.25;51.42
20009;BME280;10165;42.662;23.260;2022-10-22T09:24:39;94861.56;;;15.38;50.60
20009;BME280;10165;42.662;23.260;2022-10-22T09:27:34;94848.59;;;15.43;50.67
20009;BME280;10165;42.662;23.260;2022-10-22T09:30:00;94848.75;;;15.50;50.97
20009;BME280;10165;42.662;23.260;2022-10-22T09:32:27;94847.81;;;15.23;51.56
20009;BME280;10165;42.662;23.260;2022-10-22T09:34:56;94848.03;;;15.34;51.74
20009;BME280;10165;42.662;23.260;2022-10-22T09:37:26;94847.41;;;15.60;51.16
20009;BME280;10165;42.662;23.260;2022-10-22T09:39:55;94847.09;;;15.88;50.88
20009;BME280;10165;42.662;23.260;2022-10-22T09:42:22;94838.72;;;15.93;50.04
20009;BME280;10165;42.662;23.260;2022-10-22T09:44:56;94830.97;;;16.14;49.72
20009;BME280;10165;42.662;23.260;2022-10-22T09:47:37;94825.88;;;15.83;50.32
20009;BME280;10165;42.662;23.260;2022-10-22T09:50:26;94811.00;;;15.92;50.51
20009;BME280;10165;42.662;23.260;2022-10-22T09:53:30;94817.13;;;15.66;50.73
20009;BME280;10165;42.662;23.260;2022-10-22T09:56:07;94820.28;;;15.95;50.11
20009;BME280;10165;42.662;23.260;2022-10-22T09:58:42;94823.34;;;15.93;50.19
20009;BME280;10165;42.662;23.260;2022-10-22T10:01:16;94821.09;;;15.99;49.84
20009;BME280;10165;42.662;23.260;2022-10-22T10:03:42;94817.03;;;16.08;50.11
20009;BME280;10165;42.662;23.260;2022-10-22T10:06:09;94820.53;;;16.09;49.68
20009;BME280;10165;42.662;23.260;2022-10-22T10:08:37;94812.50;;;16.39;49.50
20009;BME280;10165;42.662;23.260;2022-10-22T10:11:18;94801.44;;;15.72;50.83
20009;BME280;10165;42.662;23.260;2022-10-22T10:27:10;94790.88;;;16.35;49.37
20009;BME280;10165;42.662;23.260;2022-10-22T10:29:49;94784.41;;;16.66;48.46
20009;BME280;10165;42.662;23.260;2022-10-22T10:38:53;94779.44;;;17.01;47.90
20009;BME280;10165;42.662;23.260;2022-10-22T10:41:32;94783.41;;;16.51;49.13
20009;BME280;10165;42.662;23.260;2022-10-22T10:49:30;94749.44;;;17.10;47.22
20009;BME280;10165;42.662;23.260;2022-10-22T10:58:07;94732.31;;;16.95;48.28
20009;BME280;10165;42.662;23.260;2022-10-22T11:00:54;94725.16;;;17.50;46.93
20009;BME280;10165;42.662;23.260;2022-10-22T11:06:11;94720.66;;;17.61;46.74
20009;BME280;10165;42.662;23.260;2022-10-22T11:08:43;94713.91;;;17.89;45.95
20009;BME280;10165;42.662;23.260;2022-10-22T11:11:18;94700.81;;;17.47;46.78
20009;BME280;10165;42.662;23.260;2022-10-22T11:13:59;94699.94;;;17.80;45.98
20009;BME280;10165;42.662;23.260;2022-10-22T11:16:34;94697.31;;;17.90;45.98
20009;BME280;10165;42.662;23.260;2022-10-22T11:19:25;94699.88;;;17.69;46.03
20009;BME280;10165;42.662;23.260;2022-10-22T11:22:56;94688.34;;;17.76;46.27
20009;BME280;10165;42.662;23.260;2022-10-22T11:25:46;94674.50;;;17.84;46.07
20009;BME280;10165;42.662;23.260;2022-10-22T11:28:33;94675.47;;;17.58;46.06
20009;BME280;10165;42.662;23.260;2022-10-22T11:31:05;94669.28;;;17.58;46.49
20009;BME280;10165;42.662;23.260;2022-10-22T11:36:13;94663.50;;;18.17;45.32
20009;BME280;10165;42.662;23.260;2022-10-22T11:38:41;94665.22;;;17.82;45.75
20009;BME280;10165;42.662;23.260;2022-10-22T11:41:13;94657.69;;;18.12;45.58
20009;BME280;10165;42.662;23.260;2022-10-22T11:49:21;94654.19;;;18.11;45.07
20009;BME280;10165;42.662;23.260;2022-10-22T11:51:48;94654.47;;;17.89;46.05
20009;BME280;10165;42.662;23.260;2022-10-22T11:57:21;94642.28;;;18.23;45.20
20009;BME280;10165;42.662;23.260;2022-10-22T11:59:55;94654.19;;;18.11;45.60
20009;BME280;10165;42.662;23.260;2022-10-22T12:05:28;94646.25;;;18.43;44.70
20009;BME280;10165;42.662;23.260;2022-10-22T12:10:56;94640.19;;;18.78;44.25
20009;BME280;10165;42.662;23.260;2022-10-22T12:14:15;94640.84;;;18.43;44.43
20009;BME280;10165;42.662;23.260;2022-10-22T12:16:25;94626.72;;;19.10;42.72
20009;BME280;10165;42.662;23.260;2022-10-22T12:19:15;94629.41;;;19.10;42.83
20009;BME280;10165;42.662;23.260;2022-10-22T12:21:51;94634.47;;;19.22;42.62
20009;BME280;10165;42.662;23.260;2022-10-22T12:24:29;94621.22;;;18.75;43.51
20009;BME280;10165;42.662;23.260;2022-10-22T12:26:59;94629.78;;;18.91;43.53
20009;BME280;10165;42.662;23.260;2022-10-22T12:29:31;94620.16;;;19.25;43.06
20009;BME280;10165;42.662;23.260;2022-10-22T12:32:02;94620.19;;;19.46;42.25
20009;BME280;10165;42.662;23.260;2022-10-22T12:34:29;94617.06;;;19.16;42.46
20009;BME280;10165;42.662;23.260;2022-10-22T12:36:56;94620.16;;;19.25;42.19
20009;BME280;10165;42.662;23.260;2022-10-22T12:39:26;94620.53;;;19.27;42.25
20009;BME280;10165;42.662;23.260;2022-10-22T12:41:53;94620.13;;;19.04;42.00
20009;BME280;10165;42.662;23.260;2022-10-22T12:44:20;94616.28;;;19.30;42.25
20009;BME280;10165;42.662;23.260;2022-10-22T12:46:48;94608.53;;;19.25;42.05
20009;BME280;10165;42.662;23.260;2022-10-22T12:49:24;94618.25;;;19.47;42.06
20009;BME280;10165;42.662;23.260;2022-10-22T12:52:00;94609.34;;;19.39;41.67
20009;BME280;10165;42.662;23.260;2022-10-22T12:54:30;94620.19;;;19.53;41.80
20009;BME280;10165;42.662;23.260;2022-10-22T12:56:58;94611.25;;;19.64;40.83
20009;BME280;10165;42.662;23.260;2022-10-22T12:59:33;94603.94;;;19.53;41.01
20009;BME280;10165;42.662;23.260;2022-10-22T13:02:01;94597.72;;;19.39;41.49
20009;BME280;10165;42.662;23.260;2022-10-22T13:04:36;94595.03;;;19.42;41.21
20009;BME280;10165;42.662;23.260;2022-10-22T13:09:56;94587.66;;;19.50;41.19
20009;BME280;10165;42.662;23.260;2022-10-22T13:12:33;94601.56;;;19.63;41.43
20009;BME280;10165;42.662;23.260;2022-10-22T13:17:46;94593.09;;;19.43;41.22
20009;BME280;10165;42.662;23.260;2022-10-22T13:20:16;94595.38;;;19.30;42.19
20009;BME280;10165;42.662;23.260;2022-10-22T13:23:03;94578.75;;;19.53;41.69
20009;BME280;10165;42.662;23.260;2022-10-22T13:25:32;94574.91;;;19.54;41.59
20009;BME280;10165;42.662;23.260;2022-10-22T13:28:09;94576.78;;;19.71;41.99
20009;BME280;10165;42.662;23.260;2022-10-22T13:30:51;94569.81;;;19.67;41.91
20009;BME280;10165;42.662;23.260;2022-10-22T13:33:20;94577.56;;;19.33;42.69
20009;BME280;10165;42.662;23.260;2022-10-22T13:35:53;94579.13;;;19.27;42.93
20009;BME280;10165;42.662;23.260;2022-10-22T13:38:22;94569.06;;;19.55;42.66
20009;BME280;10165;42.662;23.260;2022-10-22T13:40:49;94576.06;;;19.49;42.18
20009;BME280;10165;42.662;23.260;2022-10-22T13:43:17;94572.94;;;19.33;42.65
20009;BME280;10165;42.662;23.260;2022-10-22T13:45:45;94574.88;;;19.58;42.03
20009;BME280;10165;42.662;23.260;2022-10-22T13:48:17;94569.06;;;19.59;42.03
20009;BME280;10165;42.662;23.260;2022-10-22T13:50:48;94572.16;;;19.61;42.99
20009;BME280;10165;42.662;23.260;2022-10-22T13:53:17;94572.94;;;19.58;42.46
20009;BME280;10165;42.662;23.260;2022-10-22T13:55:44;94570.63;;;19.53;42.86
20009;BME280;10165;42.662;23.260;2022-10-22T13:58:14;94569.06;;;19.55;42.52
20009;BME280;10165;42.662;23.260;2022-10-22T14:00:51;94576.84;;;19.50;42.64
20009;BME280;10165;42.662;23.260;2022-10-22T14:03:23;94579.91;;;19.38;43.95
20009;BME280;10165;42.662;23.260;2022-10-22T14:05:51;94583.00;;;19.43;43.78
20009;BME280;10165;42.662;23.260;2022-10-22T14:08:19;94577.56;;;19.40;43.59
20009;BME280;10165;42.662;23.260;2022-10-22T14:10:47;94577.59;;;19.43;44.26
20009;BME280;10165;42.662;23.260;2022-10-22T14:13:16;94581.44;;;19.32;45.01
20009;BME280;10165;42.662;23.260;2022-10-22T14:15:45;94570.63;;;19.35;45.41
20009;BME280;10165;42.662;23.260;2022-10-22T14:18:15;94576.44;;;19.30;46.21
20009;BME280;10165;42.662;23.260;2022-10-22T14:20:51;94573.72;;;19.27;46.39
20009;BME280;10165;42.662;23.260;2022-10-22T14:23:21;94565.22;;;19.14;46.68
20009;BME280;10165;42.662;23.260;2022-10-22T14:25:48;94560.19;;;19.16;46.33
20009;BME280;10165;42.662;23.260;2022-10-22T14:28:18;94556.69;;;19.05;47.19
20009;BME280;10165;42.662;23.260;2022-10-22T14:30:45;94560.56;;;19.04;46.30
20009;BME280;10165;42.662;23.260;2022-10-22T14:33:13;94550.50;;;18.97;46.82
20009;BME280;10165;42.662;23.260;2022-10-22T14:35:40;94555.53;;;18.95;46.96
20009;BME280;10165;42.662;23.260;2022-10-22T14:38:10;94562.09;;;18.98;46.74
20009;BME280;10165;42.662;23.260;2022-10-22T14:40:38;94559.78;;;18.96;46.97
20009;BME280;10165;42.662;23.260;2022-10-22T14:43:05;94553.19;;;18.94;47.06
20009;BME280;10165;42.662;23.260;2022-10-22T14:45:32;94553.97;;;18.87;47.47
20009;BME280;10165;42.662;23.260;2022-10-22T14:47:58;94552.03;;;18.81;47.22
20009;BME280;10165;42.662;23.260;2022-10-22T14:50:25;94553.19;;;18.76;47.49
20009;BME280;10165;42.662;23.260;2022-10-22T14:52:55;94560.13;;;18.67;47.62
20009;BME280;10165;42.662;23.260;2022-10-22T14:55:31;94570.19;;;18.63;47.19
20009;BME280;10165;42.662;23.260;2022-10-22T14:57:57;94562.47;;;18.72;46.69